createdAt,value
2019-03-05T00:02:31.009Z,63.40
2019-03-05T00:05:04.492Z,63.40
2019-03-05T00:07:37.373Z,63.80
2019-03-05T00:10:12.128Z,64.20
2019-03-05T00:12:45.219Z,64.40
2019-03-05T00:15:22.517Z,64.40
2019-03-05T00:17:55.706Z,64.40
2019-03-05T00:20:28.415Z,64.30
2019-03-05T00:23:01.420Z,64.30
2019-03-05T00:25:34.761Z,64.40
2019-03-05T00:28:26.475Z,64.10
2019-03-05T00:31:27.740Z,64.10
2019-03-05T00:34:55.402Z,63.90
2019-03-05T00:38:20.711Z,64.40
2019-03-05T00:41:51.614Z,65.10
2019-03-05T00:44:54.059Z,65.60
2019-03-05T00:48:52.591Z,65.50
2019-03-05T00:52:17.870Z,65.60
2019-03-05T00:56:02.461Z,65.80
2019-03-05T00:58:57.136Z,66.10
2019-03-05T01:02:18.739Z,66.20
2019-03-05T01:05:40.517Z,66.40
2019-03-05T01:08:13.532Z,66.80
2019-03-05T01:10:46.544Z,67.10
2019-03-05T01:13:19.817Z,67.40
2019-03-05T01:15:53.879Z,68.00
2019-03-05T01:18:26.637Z,68.30
2019-03-05T01:20:59.424Z,68.70
2019-03-05T01:23:32.134Z,68.70
2019-03-05T01:26:05.189Z,68.60
2019-03-05T01:28:38.066Z,68.90
2019-03-05T01:31:29.356Z,69.10
2019-03-05T01:34:26.073Z,69.20
2019-03-05T01:37:00.735Z,69.50
2019-03-05T01:39:39.522Z,69.40
2019-03-05T01:42:11.949Z,69.20
2019-03-05T01:44:44.899Z,69.20
2019-03-05T01:47:17.787Z,69.10
2019-03-05T01:49:50.687Z,69.20
2019-03-05T01:52:23.532Z,69.30
2019-03-05T01:54:56.258Z,69.20
2019-03-05T01:57:29.075Z,68.90
2019-03-05T02:00:01.870Z,68.60
2019-03-05T02:02:34.561Z,68.90
2019-03-05T02:05:08.010Z,69.50
2019-03-05T02:07:40.778Z,69.70
2019-03-05T02:10:19.601Z,70.20
2019-03-05T02:12:52.608Z,70.60
2019-03-05T02:15:26.668Z,71.00
2019-03-05T02:17:59.274Z,71.20
2019-03-05T02:20:31.992Z,71.10
2019-03-05T02:23:34.537Z,69.90
2019-03-05T02:27:14.520Z,67.50
2019-03-05T02:30:47.955Z,65.60
2019-03-05T02:34:28.874Z,65.70
2019-03-05T02:37:38.284Z,67.80
2019-03-05T02:40:58.517Z,68.50
2019-03-05T02:44:54.697Z,68.20
2019-03-05T02:48:41.997Z,68.40
2019-03-05T02:52:17.327Z,69.00
2019-03-05T02:55:54.432Z,69.40
2019-03-05T02:58:23.870Z,70.60
2019-03-05T03:01:13.691Z,70.10
2019-03-05T03:03:49.738Z,70.40
2019-03-05T03:06:26.887Z,70.90
2019-03-05T03:10:07.912Z,71.30
2019-03-05T03:12:40.892Z,71.90
2019-03-05T03:15:19.055Z,72.40
2019-03-05T03:17:52.348Z,73.30
2019-03-05T03:20:26.026Z,73.90
2019-03-05T03:22:58.742Z,74.40
2019-03-05T03:25:31.564Z,74.50
2019-03-05T03:28:04.554Z,74.80
2019-03-05T03:30:37.339Z,75.40
2019-03-05T03:33:10.137Z,75.30
2019-03-05T03:35:42.706Z,75.90
2019-03-05T03:38:15.806Z,76.00
2019-03-05T03:40:48.730Z,75.80
2019-03-05T03:43:21.347Z,76.50
2019-03-05T03:45:54.068Z,76.10
2019-03-05T03:48:27.888Z,77.40
2019-03-05T03:51:00.801Z,76.20
2019-03-05T03:53:33.638Z,75.40
2019-03-05T03:56:06.562Z,74.50
2019-03-05T03:58:40.583Z,75.00
2019-03-05T04:01:13.257Z,74.60
2019-03-05T04:03:50.011Z,75.60
2019-03-05T04:06:22.798Z,76.60
2019-03-05T04:08:56.043Z,76.20
2019-03-05T04:11:28.713Z,76.20
2019-03-05T04:14:01.759Z,76.60
2019-03-05T04:16:35.815Z,76.50
2019-03-05T04:19:12.151Z,76.70
2019-03-05T04:21:45.110Z,76.60
2019-03-05T04:24:18.025Z,76.90
2019-03-05T04:26:51.078Z,77.40
2019-03-05T04:29:23.965Z,78.00
2019-03-05T04:31:58.256Z,78.40
2019-03-05T04:34:30.872Z,78.50
2019-03-05T04:37:04.302Z,79.00
2019-03-05T04:39:38.412Z,79.00
2019-03-05T04:42:12.622Z,79.10
2019-03-05T04:45:12.383Z,78.80
2019-03-05T04:47:46.661Z,79.10
2019-03-05T04:50:50.372Z,79.40
2019-03-05T04:53:23.140Z,79.80
2019-03-05T04:55:56.009Z,80.00
2019-03-05T04:58:29.123Z,80.20
2019-03-05T05:01:03.700Z,80.00
2019-03-05T05:03:36.963Z,80.40
2019-03-05T05:06:09.507Z,80.00
2019-03-05T05:08:42.388Z,80.20
2019-03-05T05:11:15.155Z,80.30
2019-03-05T05:13:49.536Z,80.20
2019-03-05T05:16:22.516Z,80.70
2019-03-05T05:18:55.910Z,82.10
2019-03-05T05:21:29.202Z,82.90
2019-03-05T05:24:02.331Z,83.30
2019-03-05T05:26:39.889Z,83.00
2019-03-05T05:29:15.756Z,83.00
2019-03-05T05:31:48.607Z,81.80
2019-03-05T05:34:21.443Z,80.90
2019-03-05T05:36:54.126Z,80.90
2019-03-05T05:40:30.945Z,81.30
2019-03-05T05:43:03.792Z,81.60
2019-03-05T05:45:46.054Z,81.20
2019-03-05T05:48:19.171Z,81.00
2019-03-05T05:50:51.795Z,80.80
2019-03-05T05:53:24.622Z,80.60
2019-03-05T05:55:57.656Z,80.20
2019-03-05T05:58:30.399Z,80.50
2019-03-05T06:01:07.669Z,80.80
2019-03-05T06:03:40.640Z,80.50
2019-03-05T06:06:13.548Z,80.20
2019-03-05T06:08:46.598Z,79.50
2019-03-05T06:11:19.203Z,78.50
2019-03-05T06:13:52.010Z,78.90
2019-03-05T06:16:25.876Z,79.20
2019-03-05T06:18:59.196Z,76.70
2019-03-05T06:21:33.174Z,75.10
2019-03-05T06:24:07.152Z,81.20
2019-03-05T06:26:40.169Z,68.50
2019-03-05T06:29:13.379Z,62.90
2019-03-05T06:31:46.858Z,59.70
2019-03-05T06:34:19.857Z,59.10
2019-03-05T06:37:05.392Z,57.90
2019-03-05T06:39:38.535Z,57.40
2019-03-05T06:42:11.363Z,57.40
2019-03-05T06:44:44.408Z,56.50
2019-03-05T06:47:17.517Z,56.00
2019-03-05T06:49:50.345Z,55.50
2019-03-05T06:52:23.454Z,53.60
2019-03-05T06:54:56.637Z,52.90
2019-03-05T06:57:29.726Z,53.40
2019-03-05T07:00:02.900Z,53.80
2019-03-05T07:02:36.133Z,51.90
2019-03-05T07:05:48.030Z,52.80
2019-03-05T07:08:21.001Z,52.30
2019-03-05T07:11:22.912Z,52.10
2019-03-05T07:13:59.680Z,52.00
2019-03-05T07:17:05.648Z,51.50
2019-03-05T07:20:54.785Z,50.30
2019-03-05T07:24:43.965Z,50.10
2019-03-05T07:27:26.190Z,49.20
2019-03-05T07:30:08.771Z,49.60
2019-03-05T07:32:47.496Z,48.70
2019-03-05T07:35:28.763Z,48.90
2019-03-05T07:38:04.502Z,48.00
2019-03-05T07:40:43.402Z,47.90
2019-03-05T07:43:21.038Z,48.20
2019-03-05T07:46:04.876Z,47.90
2019-03-05T07:48:43.145Z,46.70
2019-03-05T07:51:23.097Z,46.60
2019-03-05T07:54:23.945Z,46.50
2019-03-05T07:57:02.687Z,45.90
2019-03-05T07:59:42.121Z,45.40
2019-03-05T08:02:22.270Z,45.20
2019-03-05T08:05:05.472Z,44.50
2019-03-05T08:07:44.454Z,45.90
2019-03-05T08:10:35.239Z,44.60
2019-03-05T08:14:39.688Z,45.40
2019-03-05T08:17:16.985Z,45.70
2019-03-05T08:19:52.309Z,46.10
2019-03-05T08:22:31.558Z,47.10
2019-03-05T08:25:10.338Z,46.70
2019-03-05T08:27:46.135Z,45.40
2019-03-05T08:30:24.474Z,45.50
2019-03-05T08:35:59.079Z,44.40
2019-03-05T08:38:39.427Z,44.00
2019-03-05T08:41:17.536Z,44.50
2019-03-05T08:43:55.176Z,45.10
2019-03-05T08:46:32.333Z,43.90
2019-03-05T08:49:13.249Z,43.80
2019-03-05T08:51:51.732Z,43.70
2019-03-05T08:54:33.949Z,43.30
2019-03-05T08:57:11.776Z,44.00
2019-03-05T08:59:54.662Z,44.00
2019-03-05T09:02:34.219Z,44.20
2019-03-05T09:05:12.340Z,44.20
2019-03-05T09:07:52.929Z,44.10
2019-03-05T09:10:31.334Z,43.30
2019-03-05T09:13:10.956Z,43.00
2019-03-05T09:15:48.501Z,43.50
2019-03-05T09:18:28.974Z,43.90
2019-03-05T09:21:03.459Z,42.60
2019-03-05T09:23:41.744Z,43.40
2019-03-05T09:26:16.808Z,43.20
2019-03-05T09:28:54.745Z,42.80
2019-03-05T09:31:34.522Z,43.10
2019-03-05T09:34:13.034Z,44.40
2019-03-05T09:36:54.381Z,44.00
2019-03-05T09:39:34.444Z,43.90
2019-03-05T09:42:14.743Z,43.80
2019-03-05T09:45:03.701Z,44.00
2019-03-05T09:47:43.884Z,43.70
2019-03-05T09:50:22.718Z,43.00
2019-03-05T09:52:59.670Z,43.80
2019-03-05T09:55:40.387Z,43.90
2019-03-05T09:58:20.860Z,44.30
2019-03-05T10:00:58.041Z,43.30
2019-03-05T10:03:35.342Z,42.80
2019-03-05T10:06:15.189Z,42.90
2019-03-05T10:09:13.249Z,43.60
2019-03-05T10:11:56.590Z,43.60
2019-03-05T10:14:34.012Z,42.40
2019-03-05T10:17:17.090Z,42.30
2019-03-05T10:19:54.905Z,43.10
2019-03-05T10:22:30.983Z,42.90
2019-03-05T10:25:12.929Z,43.80
2019-03-05T10:27:55.398Z,42.90
2019-03-05T10:30:32.353Z,41.60
2019-03-05T10:33:10.882Z,42.80
2019-03-05T10:35:49.107Z,42.70
2019-03-05T10:38:25.363Z,42.10
2019-03-05T10:41:01.937Z,40.50
2019-03-05T10:43:39.428Z,40.80
2019-03-05T10:46:19.078Z,40.10
2019-03-05T10:48:57.510Z,41.10
2019-03-05T10:51:33.707Z,41.80
2019-03-05T10:54:13.196Z,41.70
2019-03-05T10:56:51.565Z,41.40
2019-03-05T10:59:28.408Z,40.60
2019-03-05T11:02:03.427Z,40.70
2019-03-05T11:04:45.985Z,41.10
2019-03-05T11:07:23.268Z,40.90
2019-03-05T11:10:01.600Z,40.00
2019-03-05T11:12:38.780Z,39.90
2019-03-05T11:15:26.077Z,40.50
2019-03-05T11:18:07.813Z,40.90
2019-03-05T11:20:47.292Z,40.60
2019-03-05T11:23:24.985Z,40.30
2019-03-05T11:26:03.002Z,40.50
2019-03-05T11:28:41.694Z,40.40
2019-03-05T11:31:20.808Z,41.10
2019-03-05T11:33:59.833Z,41.30
2019-03-05T11:36:36.354Z,40.60
2019-03-05T11:39:18.763Z,40.60
2019-03-05T11:42:00.862Z,41.10
2019-03-05T11:44:38.401Z,40.00
2019-03-05T11:47:18.582Z,39.90
2019-03-05T11:49:55.143Z,39.50
2019-03-05T11:52:33.802Z,39.70
2019-03-05T11:55:12.065Z,39.10
2019-03-05T11:57:53.170Z,39.10
2019-03-05T12:00:49.783Z,39.50
2019-03-05T12:03:31.906Z,38.70
2019-03-05T12:06:10.513Z,40.30
2019-03-05T12:08:51.305Z,38.80
2019-03-05T12:11:29.239Z,38.80
2019-03-05T12:14:06.814Z,39.40
2019-03-05T12:16:44.649Z,39.40
2019-03-05T12:19:23.684Z,40.10
2019-03-05T12:22:04.831Z,40.20
2019-03-05T12:25:01.250Z,39.50
2019-03-05T12:27:37.827Z,38.60
2019-03-05T12:30:16.190Z,37.20
2019-03-05T12:32:53.959Z,36.50
2019-03-05T12:35:31.684Z,36.90
2019-03-05T12:38:06.647Z,37.30
2019-03-05T12:40:44.790Z,38.00
2019-03-05T12:43:22.000Z,38.50
2019-03-05T12:45:58.560Z,39.90
2019-03-05T12:48:40.313Z,39.40
2019-03-05T12:51:16.240Z,38.90
2019-03-05T12:54:00.501Z,38.50
2019-03-05T12:56:39.945Z,38.60
2019-03-05T12:59:24.563Z,39.10
2019-03-05T13:02:16.893Z,39.80
2019-03-05T13:04:57.060Z,40.10
2019-03-05T13:07:37.213Z,40.80
2019-03-05T13:10:15.304Z,41.00
2019-03-05T13:12:48.741Z,41.60
2019-03-05T13:15:28.869Z,42.20
2019-03-05T13:18:07.931Z,42.60
2019-03-05T13:20:48.249Z,43.30
2019-03-05T13:23:30.616Z,43.40
2019-03-05T13:26:12.626Z,44.20
2019-03-05T13:28:51.709Z,44.00
2019-03-05T13:31:33.053Z,44.20
2019-03-05T13:34:07.777Z,44.10
2019-03-05T13:36:50.710Z,44.80
2019-03-05T13:39:28.153Z,45.00
2019-03-05T13:42:03.523Z,45.50
2019-03-05T13:44:41.362Z,46.00
2019-03-05T13:47:24.127Z,46.30
2019-03-05T13:50:56.040Z,46.50
2019-03-05T13:54:39.697Z,46.80
2019-03-05T13:58:11.823Z,46.50
2019-03-05T14:00:53.080Z,46.70
2019-03-05T14:03:45.673Z,47.10
2019-03-05T14:07:36.444Z,47.50
2019-03-05T14:10:09.996Z,47.80
2019-03-05T14:12:43.407Z,47.70
2019-03-05T14:15:17.912Z,48.00
2019-03-05T14:17:50.928Z,48.40
2019-03-05T14:20:31.796Z,48.60
2019-03-05T14:22:59.680Z,48.60
2019-03-05T14:25:38.448Z,49.10
2019-03-05T14:28:12.199Z,49.40
2019-03-05T14:30:45.507Z,49.10
2019-03-05T14:33:19.429Z,49.60
2019-03-05T14:35:55.870Z,49.30
2019-03-05T14:38:32.515Z,49.40
2019-03-05T14:41:06.163Z,49.60
2019-03-05T14:43:39.587Z,49.80
2019-03-05T14:46:13.451Z,49.90
2019-03-05T14:48:47.011Z,50.40
2019-03-05T14:51:22.244Z,50.10
2019-03-05T14:53:55.503Z,50.10
2019-03-05T14:56:28.677Z,50.10
2019-03-05T14:59:01.843Z,50.40
2019-03-05T15:01:35.350Z,50.90
2019-03-05T15:04:11.072Z,50.60
2019-03-05T15:06:44.415Z,50.70
2019-03-05T15:09:17.993Z,51.20
2019-03-05T15:11:51.612Z,51.20
2019-03-05T15:14:25.120Z,51.50
2019-03-05T15:17:05.659Z,51.40
2019-03-05T15:19:39.212Z,51.50
2019-03-05T15:22:12.818Z,51.80
2019-03-05T15:24:47.078Z,51.80
2019-03-05T15:27:20.437Z,52.10
2019-03-05T15:29:53.762Z,52.00
2019-03-05T15:32:27.278Z,51.90
2019-03-05T15:35:00.861Z,52.10
2019-03-05T15:37:40.101Z,52.20
2019-03-05T15:40:15.192Z,52.90
2019-03-05T15:42:48.188Z,54.20
2019-03-05T15:45:21.945Z,54.50
2019-03-05T15:47:55.376Z,55.10
2019-03-05T15:50:29.036Z,55.80
2019-03-05T15:53:02.655Z,56.10
2019-03-05T15:55:36.128Z,56.90
2019-03-05T15:58:10.053Z,57.70
2019-03-05T16:00:44.979Z,58.40
2019-03-05T16:03:19.967Z,59.10
2019-03-05T16:05:57.382Z,59.60
2019-03-05T16:08:33.956Z,60.30
2019-03-05T16:11:07.005Z,60.80
2019-03-05T16:13:40.956Z,61.50
2019-03-05T16:16:19.936Z,62.10
2019-03-05T16:18:53.486Z,62.40
2019-03-05T16:21:26.689Z,63.50
2019-03-05T16:24:01.679Z,63.90
2019-03-05T16:26:35.981Z,64.20
2019-03-05T16:29:09.348Z,65.50
2019-03-05T16:32:04.593Z,66.40
2019-03-05T16:34:55.092Z,66.50
